Time;durP1;ratioP1;P1;durP2;ratioP2;P2;SDS_P1;SDS_P2;PMS_P1;PMS_P2;Temp;Humidity;BMP_temperature;BMP_pressure;BME280_temperature;BME280_humidity;BME280_pressure;Samples;Min_cycle;Max_cycle;Signal;HPM_P1;HPM_P2
2022/12/06 00:02:09;;;;;;;26.07;16.47;;;;;;;;;;5059617;28;20021;-76
2022/12/06 00:04:35;;;;;;;27.13;16.13;;;;;;;;;;5044271;28;20083;-76
2022/12/06 00:07:01;;;;;;;26.77;15.10;;;;;;;;;;5048182;28;20140;-76
2022/12/06 00:09:28;;;;;;;33.20;16.43;;;;;;;;;;5060909;28;20485;-76
2022/12/06 00:11:55;;;;;;;24.20;15.40;;;;;;;;;;5046273;28;20279;-76
2022/12/06 00:14:21;;;;;;;26.27;16.03;;;;;;;;;;5061715;28;20065;-76
2022/12/06 00:16:48;;;;;;;26.47;15.80;;;;;;;;;;5043411;28;20032;-75
2022/12/06 00:19:15;;;;;;;31.70;16.33;;;;;;;;;;5056128;28;21235;-77
2022/12/06 00:21:41;;;;;;;29.43;15.00;;;;;;;;;;5060192;28;20048;-76
2022/12/06 00:24:10;;;;;;;26.30;16.03;;;;;;;;;;5054138;28;20805;-74
2022/12/06 00:26:37;;;;;;;29.97;17.03;;;;;;;;;;5048125;28;20366;-76
2022/12/06 00:29:03;;;;;;;32.73;17.23;;;;;;;;;;5061725;28;20693;-76
2022/12/06 00:31:30;;;;;;;30.37;17.73;;;;;;;;;;5048237;28;20057;-76
2022/12/06 00:33:56;;;;;;;32.17;17.97;;;;;;;;;;5057380;28;20033;-77
2022/12/06 00:36:24;;;;;;;28.33;16.03;;;;;;;;;;5043825;28;20283;-76
2022/12/06 00:38:50;;;;;;;35.93;18.90;;;;;;;;;;5055793;28;20819;-76
2022/12/06 00:41:18;;;;;;;39.83;17.90;;;;;;;;;;5045109;28;20279;-76
2022/12/06 00:43:44;;;;;;;32.07;17.53;;;;;;;;;;5042373;28;20021;-75
2022/12/06 00:46:12;;;;;;;30.10;17.23;;;;;;;;;;5043330;28;20747;-76
2022/12/06 00:48:38;;;;;;;33.80;17.50;;;;;;;;;;5044424;28;20283;-77
2022/12/06 00:51:04;;;;;;;39.00;19.17;;;;;;;;;;5058529;28;20044;-76
2022/12/06 00:53:30;;;;;;;37.23;17.90;;;;;;;;;;5045525;28;20048;-76
2022/12/06 00:55:56;;;;;;;35.33;18.80;;;;;;;;;;5045327;28;20341;-76
2022/12/06 00:58:24;;;;;;;37.97;19.33;;;;;;;;;;5052642;28;20371;-76
2022/12/06 01:00:51;;;;;;;30.77;16.97;;;;;;;;;;5043660;28;21623;-76
2022/12/06 01:03:17;;;;;;;33.23;17.57;;;;;;;;;;5045172;28;20298;-75
2022/12/06 01:05:44;;;;;;;34.57;17.20;;;;;;;;;;5043973;28;20303;-76
2022/12/06 01:08:10;;;;;;;33.40;18.90;;;;;;;;;;5057526;28;20388;-76
2022/12/06 01:10:37;;;;;;;40.43;18.73;;;;;;;;;;5046117;28;20037;-77
2022/12/06 01:13:04;;;;;;;37.37;17.53;;;;;;;;;;5041666;28;20363;-76
2022/12/06 01:15:30;;;;;;;35.37;18.13;;;;;;;;;;5063268;28;20296;-75
2022/12/06 01:17:58;;;;;;;38.27;19.10;;;;;;;;;;5053369;28;20275;-76
2022/12/06 01:20:26;;;;;;;36.17;20.17;;;;;;;;;;5056895;28;20372;-76
2022/12/06 01:22:52;;;;;;;38.23;19.13;;;;;;;;;;5061696;28;20329;-76
2022/12/06 01:25:18;;;;;;;42.43;20.23;;;;;;;;;;5063915;28;20259;-76
2022/12/06 01:27:45;;;;;;;43.17;20.97;;;;;;;;;;5054373;28;20028;-76
2022/12/06 01:30:11;;;;;;;39.13;20.47;;;;;;;;;;5053715;28;20264;-75
2022/12/06 01:32:37;;;;;;;45.87;21.17;;;;;;;;;;5053985;28;20262;-77
2022/12/06 01:35:03;;;;;;;44.30;21.43;;;;;;;;;;5054631;28;20263;-75
2022/12/06 01:37:29;;;;;;;46.53;22.40;;;;;;;;;;5051469;28;20275;-76
2022/12/06 01:39:56;;;;;;;50.53;22.53;;;;;;;;;;5069398;28;20661;-76
2022/12/06 01:42:22;;;;;;;49.93;23.53;;;;;;;;;;5057695;28;20264;-76
2022/12/06 01:44:51;;;;;;;58.73;23.97;;;;;;;;;;5055534;28;20487;-76
2022/12/06 01:47:27;;;;;;;58.43;25.90;;;;;;;;;;5053639;28;20322;-77
2022/12/06 01:49:56;;;;;;;56.60;23.73;;;;;;;;;;5077038;28;20040;-77
2022/12/06 01:52:24;;;;;;;58.60;24.07;;;;;;;;;;5053184;28;20255;-77
2022/12/06 01:54:50;;;;;;;50.63;23.43;;;;;;;;;;5055678;28;20116;-77
2022/12/06 01:57:17;;;;;;;59.83;23.73;;;;;;;;;;5060460;28;20259;-77
2022/12/06 01:59:43;;;;;;;63.70;24.23;;;;;;;;;;5068641;28;20277;-77
2022/12/06 02:02:09;;;;;;;65.40;25.17;;;;;;;;;;5061039;28;20448;-77
2022/12/06 02:04:35;;;;;;;60.00;25.93;;;;;;;;;;5059638;28;20252;-76
2022/12/06 02:07:02;;;;;;;58.13;23.73;;;;;;;;;;5063234;28;20305;-77
2022/12/06 02:09:29;;;;;;;68.70;25.37;;;;;;;;;;5068426;28;20021;-77
2022/12/06 02:11:55;;;;;;;61.63;24.47;;;;;;;;;;5070323;28;20090;-77
2022/12/06 02:14:23;;;;;;;59.67;25.07;;;;;;;;;;5053730;28;20268;-77
2022/12/06 02:16:58;;;;;;;62.23;24.60;;;;;;;;;;5053479;28;20358;-77
2022/12/06 02:19:50;;;;;;;71.07;25.90;;;;;;;;;;5062172;28;20731;-77
2022/12/06 02:22:22;;;;;;;61.90;24.17;;;;;;;;;;5050345;28;20333;-77
2022/12/06 02:24:50;;;;;;;67.07;25.73;;;;;;;;;;5045932;28;20659;-77
2022/12/06 02:27:32;;;;;;;56.57;24.83;;;;;;;;;;5054522;28;20255;-76
2022/12/06 02:30:07;;;;;;;61.30;24.23;;;;;;;;;;5055474;28;20366;-77
2022/12/06 02:32:52;;;;;;;60.67;24.83;;;;;;;;;;5054269;28;20412;-76
2022/12/06 02:35:22;;;;;;;48.97;23.07;;;;;;;;;;5061655;28;20251;-77
2022/12/06 02:37:51;;;;;;;56.83;26.03;;;;;;;;;;5067615;28;20258;-77
2022/12/06 02:40:19;;;;;;;59.33;25.20;;;;;;;;;;5053222;28;20283;-76
2022/12/06 02:43:04;;;;;;;67.50;26.70;;;;;;;;;;5052946;28;20284;-77
2022/12/06 02:45:34;;;;;;;57.40;25.50;;;;;;;;;;5054196;28;20248;-76
2022/12/06 02:48:01;;;;;;;59.03;25.53;;;;;;;;;;5054184;28;20044;-77
2022/12/06 02:50:36;;;;;;;53.97;26.27;;;;;;;;;;5055423;28;20772;-76
2022/12/06 02:53:02;;;;;;;61.13;25.63;;;;;;;;;;5053360;28;20259;-77
2022/12/06 02:55:30;;;;;;;63.63;26.63;;;;;;;;;;5053060;28;20623;-77
2022/12/06 02:57:58;;;;;;;66.57;24.50;;;;;;;;;;5061568;28;20575;-77
2022/12/06 03:00:25;;;;;;;59.70;24.17;;;;;;;;;;5066191;28;20445;-76
2022/12/06 03:02:54;;;;;;;56.17;25.83;;;;;;;;;;5059924;28;20300;-76
2022/12/06 03:05:23;;;;;;;58.63;24.87;;;;;;;;;;5056892;28;20302;-76
2022/12/06 03:07:50;;;;;;;61.63;24.50;;;;;;;;;;5056805;28;20286;-76
2022/12/06 03:10:31;;;;;;;60.33;26.57;;;;;;;;;;5056576;28;20141;-76
2022/12/06 03:13:00;;;;;;;55.67;25.83;;;;;;;;;;5056827;28;20124;-75
2022/12/06 03:15:40;;;;;;;60.80;26.40;;;;;;;;;;5055744;28;20025;-77
2022/12/06 03:18:09;;;;;;;57.90;26.10;;;;;;;;;;5056029;28;20279;-77
2022/12/06 03:20:47;;;;;;;55.60;25.57;;;;;;;;;;5063477;28;20290;-77
2022/12/06 03:23:24;;;;;;;61.23;25.97;;;;;;;;;;5056583;28;20021;-77
2022/12/06 03:25:51;;;;;;;60.90;26.47;;;;;;;;;;5057383;28;20438;-76
2022/12/06 03:28:21;;;;;;;61.43;27.03;;;;;;;;;;5062424;28;20141;-76
2022/12/06 03:30:49;;;;;;;58.80;26.10;;;;;;;;;;5059243;28;20464;-75
2022/12/06 03:33:16;;;;;;;62.13;26.90;;;;;;;;;;5063694;28;20094;-76
2022/12/06 03:35:46;;;;;;;74.20;27.40;;;;;;;;;;5065478;28;20131;-76
2022/12/06 03:38:18;;;;;;;57.80;26.67;;;;;;;;;;5049928;28;20028;-76
2022/12/06 03:40:47;;;;;;;70.40;27.85;;;;;;;;;;5057076;28;20039;-76
2022/12/06 03:43:13;;;;;;;70.43;27.50;;;;;;;;;;5058843;28;20133;-76
2022/12/06 03:45:46;;;;;;;84.27;30.20;;;;;;;;;;5068676;28;20093;-76
2022/12/06 03:48:31;;;;;;;70.97;27.30;;;;;;;;;;5057407;28;20022;-76
2022/12/06 03:50:59;;;;;;;71.33;27.33;;;;;;;;;;5059356;28;20496;-77
2022/12/06 03:53:25;;;;;;;66.13;29.17;;;;;;;;;;5063292;28;20031;-77
2022/12/06 03:55:51;;;;;;;75.73;28.77;;;;;;;;;;5064498;28;20053;-77
2022/12/06 03:58:17;;;;;;;77.53;28.50;;;;;;;;;;5057068;28;20431;-76
2022/12/06 04:00:43;;;;;;;75.30;28.13;;;;;;;;;;5055442;28;20055;-76
2022/12/06 04:03:09;;;;;;;80.03;29.03;;;;;;;;;;5054492;28;20021;-76
2022/12/06 04:05:35;;;;;;;90.33;31.77;;;;;;;;;;5075510;28;20036;-75
2022/12/06 04:08:01;;;;;;;79.00;30.63;;;;;;;;;;5056310;28;20028;-76
2022/12/06 04:10:27;;;;;;;86.17;30.00;;;;;;;;;;5054820;28;20275;-77
2022/12/06 04:12:59;;;;;;;75.50;29.90;;;;;;;;;;5055714;28;20024;-77
2022/12/06 04:15:26;;;;;;;78.25;29.60;;;;;;;;;;5053971;28;20409;-76
2022/12/06 04:23:34;;;;;;;82.53;28.93;;;;;;;;;;5057082;28;20613;-75
2022/12/06 04:26:01;;;;;;;85.87;29.80;;;;;;;;;;5057636;28;20017;-76
2022/12/06 04:39:25;;;;;;;97.57;30.73;;;;;;;;;;5055037;28;20043;-76
2022/12/06 04:44:41;;;;;;;112.50;31.80;;;;;;;;;;5066425;28;20467;-75
2022/12/06 04:47:07;;;;;;;91.90;32.23;;;;;;;;;;5061341;28;20021;-76
2022/12/06 04:49:33;;;;;;;103.50;33.93;;;;;;;;;;5055766;28;20440;-76
2022/12/06 04:51:59;;;;;;;121.83;33.07;;;;;;;;;;5053902;28;20040;-76
2022/12/06 04:54:30;;;;;;;83.20;30.93;;;;;;;;;;5054326;28;20029;-76
2022/12/06 04:56:56;;;;;;;102.97;31.43;;;;;;;;;;5046837;28;20032;-76
2022/12/06 04:59:23;;;;;;;92.83;31.87;;;;;;;;;;5052285;28;20365;-75
2022/12/06 05:01:51;;;;;;;92.17;30.73;;;;;;;;;;5069411;28;20025;-76
2022/12/06 05:04:17;;;;;;;117.90;32.57;;;;;;;;;;5053928;28;20079;-76
2022/12/06 05:06:43;;;;;;;84.63;30.13;;;;;;;;;;5054969;28;20357;-76
2022/12/06 05:09:09;;;;;;;96.50;30.50;;;;;;;;;;5053701;28;20025;-75
2022/12/06 05:11:35;;;;;;;87.03;29.93;;;;;;;;;;5061842;28;20082;-76
2022/12/06 05:14:01;;;;;;;92.80;28.97;;;;;;;;;;5052293;28;20032;-76
2022/12/06 05:16:27;;;;;;;96.63;29.07;;;;;;;;;;5043684;28;20033;-76
2022/12/06 05:18:54;;;;;;;86.97;28.03;;;;;;;;;;5041093;28;20029;-74
2022/12/06 05:21:21;;;;;;;75.30;27.63;;;;;;;;;;5057062;28;20041;-76
2022/12/06 05:23:47;;;;;;;78.63;28.67;;;;;;;;;;5052308;28;20045;-74
2022/12/06 05:26:15;;;;;;;103.30;30.53;;;;;;;;;;5052255;28;20044;-75
2022/12/06 05:28:41;;;;;;;90.47;28.47;;;;;;;;;;5039506;28;20365;-75
2022/12/06 05:31:07;;;;;;;90.03;29.47;;;;;;;;;;5047820;28;20060;-76
2022/12/06 05:33:34;;;;;;;83.83;29.10;;;;;;;;;;5055865;28;20029;-76
2022/12/06 05:36:05;;;;;;;84.97;29.27;;;;;;;;;;5041027;28;20060;-75
2022/12/06 05:38:32;;;;;;;79.57;27.43;;;;;;;;;;5042307;28;20041;-75
2022/12/06 05:40:58;;;;;;;75.27;27.10;;;;;;;;;;5042360;28;20044;-75
2022/12/06 05:43:24;;;;;;;66.27;26.77;;;;;;;;;;5041576;28;20339;-76
2022/12/06 05:45:53;;;;;;;75.70;26.97;;;;;;;;;;5042347;28;20040;-75
2022/12/06 05:48:19;;;;;;;74.87;27.80;;;;;;;;;;5042775;28;20112;-76
2022/12/06 05:50:49;;;;;;;93.63;29.43;;;;;;;;;;5058052;28;20071;-76
2022/12/06 05:53:15;;;;;;;83.90;28.33;;;;;;;;;;5041753;28;20032;-76
2022/12/06 05:55:42;;;;;;;89.37;28.67;;;;;;;;;;5044561;28;20069;-76
2022/12/06 05:58:08;;;;;;;81.20;29.07;;;;;;;;;;5052860;28;20033;-77
2022/12/06 06:00:34;;;;;;;84.77;28.60;;;;;;;;;;5058286;28;20040;-74
2022/12/06 06:03:02;;;;;;;82.30;31.30;;;;;;;;;;5043026;28;20044;-77
2022/12/06 06:05:31;;;;;;;82.37;30.07;;;;;;;;;;5041220;28;20481;-77
2022/12/06 06:07:57;;;;;;;87.70;29.97;;;;;;;;;;5044036;28;20446;-77
2022/12/06 06:10:23;;;;;;;86.13;30.37;;;;;;;;;;5057886;28;20049;-75
2022/12/06 06:12:49;;;;;;;88.17;30.17;;;;;;;;;;5058254;28;20039;-76
2022/12/06 06:15:16;;;;;;;84.63;28.47;;;;;;;;;;5043102;28;20969;-76
2022/12/06 06:17:44;;;;;;;99.77;31.10;;;;;;;;;;5042593;28;20104;-81
2022/12/06 06:20:13;;;;;;;90.13;28.97;;;;;;;;;;5043600;28;20036;-76
2022/12/06 06:22:39;;;;;;;104.27;30.90;;;;;;;;;;5042873;28;20040;-75
2022/12/06 06:25:06;;;;;;;101.00;31.00;;;;;;;;;;5055670;28;20036;-75
2022/12/06 06:27:35;;;;;;;111.03;31.23;;;;;;;;;;5043510;28;20025;-75
2022/12/06 06:30:01;;;;;;;85.47;29.43;;;;;;;;;;5054876;28;20025;-76
2022/12/06 06:32:27;;;;;;;100.10;29.80;;;;;;;;;;5057853;28;20033;-77
2022/12/06 06:34:56;;;;;;;111.07;31.83;;;;;;;;;;5055318;28;20672;-74
2022/12/06 06:37:24;;;;;;;117.17;32.27;;;;;;;;;;5040417;28;20029;-77
2022/12/06 06:39:50;;;;;;;112.10;32.20;;;;;;;;;;5053820;28;20033;-75
2022/12/06 06:42:16;;;;;;;113.20;33.97;;;;;;;;;;5053990;28;20029;-76
2022/12/06 06:44:43;;;;;;;103.90;32.53;;;;;;;;;;5047356;28;20098;-76
2022/12/06 06:47:11;;;;;;;100.87;31.43;;;;;;;;;;5047566;28;20491;-74
2022/12/06 06:49:37;;;;;;;107.10;30.77;;;;;;;;;;5061466;28;20104;-77
2022/12/06 06:52:03;;;;;;;91.80;30.87;;;;;;;;;;5046483;28;20064;-77
2022/12/06 06:54:29;;;;;;;100.27;31.43;;;;;;;;;;5061457;28;20033;-76
2022/12/06 06:56:56;;;;;;;101.90;32.30;;;;;;;;;;5060718;28;20029;-76
2022/12/06 06:59:22;;;;;;;94.73;28.67;;;;;;;;;;5060421;28;20037;-76
2022/12/06 07:01:48;;;;;;;91.03;30.93;;;;;;;;;;5061949;28;20095;-76
2022/12/06 07:04:17;;;;;;;98.33;31.67;;;;;;;;;;5053095;28;20055;-76
2022/12/06 07:06:43;;;;;;;89.37;29.03;;;;;;;;;;5063643;28;20774;-76
2022/12/06 07:09:10;;;;;;;94.23;29.30;;;;;;;;;;5045468;28;20033;-76
2022/12/06 07:11:36;;;;;;;81.93;28.63;;;;;;;;;;5064992;28;22096;-76
2022/12/06 07:14:02;;;;;;;94.37;29.53;;;;;;;;;;5060899;28;20078;-76
2022/12/06 07:16:28;;;;;;;84.50;29.57;;;;;;;;;;5068456;28;20033;-76
2022/12/06 07:18:54;;;;;;;87.47;29.70;;;;;;;;;;5062761;28;20445;-76
2022/12/06 07:21:23;;;;;;;90.07;30.37;;;;;;;;;;5058286;28;20025;-77
2022/12/06 07:23:50;;;;;;;77.83;31.17;;;;;;;;;;5055811;28;20108;-77
2022/12/06 07:26:20;;;;;;;78.83;28.87;;;;;;;;;;5057286;28;20036;-76
2022/12/06 07:28:47;;;;;;;96.07;31.70;;;;;;;;;;5056718;28;20045;-76
2022/12/06 07:31:12;;;;;;;71.07;29.73;;;;;;;;;;5056547;28;20104;-76
2022/12/06 07:33:39;;;;;;;89.30;30.23;;;;;;;;;;5050402;28;20028;-75
2022/12/06 07:36:06;;;;;;;71.87;28.93;;;;;;;;;;5056695;28;20033;-77
2022/12/06 07:38:32;;;;;;;79.17;28.93;;;;;;;;;;5056538;28;20024;-76
2022/12/06 07:44:59;;;;;;;77.67;29.20;;;;;;;;;;5066388;28;20064;-76
2022/12/06 07:46:32;;;;;;;75.03;27.70;;;;;;;;;;5053680;28;20055;-79
2022/12/06 07:49:03;;;;;;;78.00;30.07;;;;;;;;;;5062689;28;20091;-76
2022/12/06 07:51:29;;;;;;;90.13;31.47;;;;;;;;;;5067857;28;20063;-77
2022/12/06 07:53:58;;;;;;;83.53;29.97;;;;;;;;;;5056784;28;20101;-76
2022/12/06 07:56:24;;;;;;;75.00;27.97;;;;;;;;;;5061909;28;20028;-75
2022/12/06 07:58:50;;;;;;;74.63;29.73;;;;;;;;;;5055747;28;20037;-76
2022/12/06 08:01:16;;;;;;;75.10;29.67;;;;;;;;;;5056714;28;20102;-76
2022/12/06 08:03:42;;;;;;;73.67;29.47;;;;;;;;;;5055459;28;20021;-76
2022/12/06 08:06:08;;;;;;;78.13;29.77;;;;;;;;;;5054011;28;20025;-76
2022/12/06 08:08:35;;;;;;;80.57;29.77;;;;;;;;;;5057775;28;20029;-76
2022/12/06 08:11:02;;;;;;;80.20;28.60;;;;;;;;;;5055928;28;20044;-76
2022/12/06 08:13:30;;;;;;;94.00;30.33;;;;;;;;;;5053190;28;20064;-77
2022/12/06 08:15:56;;;;;;;86.83;31.43;;;;;;;;;;5055567;28;20454;-76
2022/12/06 08:18:22;;;;;;;88.80;31.30;;;;;;;;;;5055428;28;20044;-76
2022/12/06 08:20:51;;;;;;;88.63;30.37;;;;;;;;;;5055577;28;20461;-76
2022/12/06 08:23:17;;;;;;;83.23;30.73;;;;;;;;;;5051161;28;20053;-76
2022/12/06 08:25:43;;;;;;;103.70;31.90;;;;;;;;;;5059190;28;20021;-75
2022/12/06 08:28:09;;;;;;;89.00;31.90;;;;;;;;;;5061805;28;20329;-76
2022/12/06 08:30:38;;;;;;;104.20;31.50;;;;;;;;;;5056670;28;20028;-75
2022/12/06 08:33:04;;;;;;;98.50;31.57;;;;;;;;;;5060444;28;20033;-76
2022/12/06 08:35:31;;;;;;;113.87;32.53;;;;;;;;;;5065757;28;20033;-75
2022/12/06 08:37:57;;;;;;;110.67;31.33;;;;;;;;;;5058671;28;20392;-76
2022/12/06 08:40:23;;;;;;;130.73;32.33;;;;;;;;;;5065184;28;20456;-76
2022/12/06 08:42:49;;;;;;;111.10;29.03;;;;;;;;;;5047097;28;20414;-76
2022/12/06 08:45:15;;;;;;;113.10;31.77;;;;;;;;;;5052512;28;20032;-76
2022/12/06 08:47:41;;;;;;;146.00;34.10;;;;;;;;;;5044719;28;20095;-76
2022/12/06 08:50:07;;;;;;;90.93;27.20;;;;;;;;;;5053495;28;20504;-76
2022/12/06 08:52:33;;;;;;;149.00;35.90;;;;;;;;;;5051776;28;20473;-78
2022/12/06 08:54:59;;;;;;;121.37;33.23;;;;;;;;;;5051975;28;20051;-76
2022/12/06 08:57:28;;;;;;;144.70;34.60;;;;;;;;;;5045864;28;20025;-76
2022/12/06 08:59:54;;;;;;;107.77;30.43;;;;;;;;;;5051570;28;20033;-76
2022/12/06 09:02:20;;;;;;;99.90;31.93;;;;;;;;;;5063602;28;20036;-76
2022/12/06 09:04:49;;;;;;;112.57;30.43;;;;;;;;;;5058295;28;20452;-76
2022/12/06 09:07:17;;;;;;;90.97;29.70;;;;;;;;;;5057693;28;20033;-76
2022/12/06 09:09:45;;;;;;;80.90;28.60;;;;;;;;;;5056760;28;20368;-79
2022/12/06 09:12:11;;;;;;;91.13;28.53;;;;;;;;;;5053860;28;20039;-76
2022/12/06 09:14:39;;;;;;;75.23;29.77;;;;;;;;;;5052273;28;20020;-77
2022/12/06 09:17:05;;;;;;;74.50;27.87;;;;;;;;;;5052267;28;20033;-75
2022/12/06 09:19:36;;;;;;;60.53;26.17;;;;;;;;;;5065812;28;20061;-76
2022/12/06 09:22:02;;;;;;;73.13;27.57;;;;;;;;;;5048435;28;20094;-77
2022/12/06 09:24:28;;;;;;;66.20;25.33;;;;;;;;;;5051075;28;20036;-76
2022/12/06 09:26:57;;;;;;;66.43;26.03;;;;;;;;;;5052418;28;20025;-75
2022/12/06 09:29:23;;;;;;;61.60;24.00;;;;;;;;;;5069212;28;20017;-76
2022/12/06 09:31:49;;;;;;;60.50;23.13;;;;;;;;;;5052775;28;20051;-77
2022/12/06 09:34:16;;;;;;;57.83;23.47;;;;;;;;;;5054681;28;20033;-77
2022/12/06 09:36:47;;;;;;;58.57;24.80;;;;;;;;;;5056057;28;20090;-76
2022/12/06 09:39:23;;;;;;;52.80;24.17;;;;;;;;;;5053550;28;20056;-76
2022/12/06 09:42:01;;;;;;;53.90;22.07;;;;;;;;;;5050030;28;20032;-76
2022/12/06 09:44:27;;;;;;;48.73;21.80;;;;;;;;;;5051697;28;20056;-74
2022/12/06 09:47:11;;;;;;;49.50;21.53;;;;;;;;;;5052320;28;20387;-76
2022/12/06 09:50:01;;;;;;;42.53;20.43;;;;;;;;;;5066637;28;20036;-76
2022/12/06 09:52:46;;;;;;;40.63;19.63;;;;;;;;;;5054929;28;20341;-76
2022/12/06 09:55:14;;;;;;;40.80;19.73;;;;;;;;;;5050725;28;20043;-76
2022/12/06 09:58:02;;;;;;;42.50;19.30;;;;;;;;;;5057804;28;20043;-76
2022/12/06 10:00:33;;;;;;;37.50;17.60;;;;;;;;;;5051837;28;20059;-76
2022/12/06 10:03:25;;;;;;;40.60;18.63;;;;;;;;;;5069226;28;20025;-77
2022/12/06 10:05:59;;;;;;;33.80;17.92;;;;;;;;;;5021191;28;20049;-76
2022/12/06 10:08:28;;;;;;;38.90;19.10;;;;;;;;;;5059274;28;20040;-75
2022/12/06 10:11:00;;;;;;;35.87;17.63;;;;;;;;;;5056596;28;20029;-76
2022/12/06 10:13:44;;;;;;;38.60;17.77;;;;;;;;;;5054145;28;20040;-75
2022/12/06 10:16:32;;;;;;;36.43;17.73;;;;;;;;;;5053184;28;20082;-76
2022/12/06 10:19:07;;;;;;;32.37;16.87;;;;;;;;;;5078238;28;20028;-76
2022/12/06 10:22:12;;;;;;;40.07;24.07;;;;;;;;;;5051546;28;20471;-76
2022/12/06 10:24:38;;;;;;;32.03;16.93;;;;;;;;;;4967860;28;20045;-77
2022/12/06 10:27:11;;;;;;;31.50;18.60;;;;;;;;;;4975972;28;20018;-78
2022/12/06 10:29:46;;;;;;;33.87;18.70;;;;;;;;;;4977179;28;20046;-77
2022/12/06 10:32:12;;;;;;;31.50;16.77;;;;;;;;;;4974150;28;20038;-77
2022/12/06 10:34:49;;;;;;;29.70;17.43;;;;;;;;;;4977200;28;20030;-77
2022/12/06 10:37:22;;;;;;;30.17;16.60;;;;;;;;;;4981006;28;20030;-77
2022/12/06 10:39:51;;;;;;;28.00;16.48;;;;;;;;;;4973401;28;20030;-77
2022/12/06 10:42:28;;;;;;;29.90;16.53;;;;;;;;;;4975206;28;20431;-76
2022/12/06 10:44:58;;;;;;;32.73;14.97;;;;;;;;;;4977126;28;20057;-77
2022/12/06 10:47:29;;;;;;;29.50;15.33;;;;;;;;;;4985348;28;20466;-78
2022/12/06 10:50:01;;;;;;;27.00;16.90;;;;;;;;;;4977486;28;20042;-77
2022/12/06 10:52:46;;;;;;;28.58;15.38;;;;;;;;;;4975764;28;20054;-77
2022/12/06 10:55:35;;;;;;;28.80;15.60;;;;;;;;;;4997722;28;20030;-77
2022/12/06 10:58:08;;;;;;;25.57;17.40;;;;;;;;;;5058792;28;20039;-77
2022/12/06 11:00:35;;;;;;;29.08;17.10;;;;;;;;;;5063684;28;20483;-77
2022/12/06 11:03:07;;;;;;;24.57;14.50;;;;;;;;;;5056995;28;20033;-77
2022/12/06 11:05:52;;;;;;;24.08;14.32;;;;;;;;;;5053322;28;20028;-77
2022/12/06 11:08:21;;;;;;;25.13;14.73;;;;;;;;;;5048926;28;20400;-77
2022/12/06 11:10:50;;;;;;;23.77;13.60;;;;;;;;;;5061534;28;20017;-77
2022/12/06 11:13:25;;;;;;;24.70;12.77;;;;;;;;;;5054058;28;20049;-78
2022/12/06 11:15:57;;;;;;;21.10;11.90;;;;;;;;;;5060167;28;20031;-76
2022/12/06 11:18:27;;;;;;;23.47;13.03;;;;;;;;;;5057576;28;20090;-76
2022/12/06 11:20:59;;;;;;;24.67;12.67;;;;;;;;;;5058598;28;20037;-77
2022/12/06 11:23:29;;;;;;;21.50;12.07;;;;;;;;;;5043637;28;20029;-76
2022/12/06 11:25:55;;;;;;;24.60;12.70;;;;;;;;;;5062405;28;20040;-76
2022/12/06 11:28:31;;;;;;;25.03;12.63;;;;;;;;;;5046664;28;20026;-77
2022/12/06 11:31:00;;;;;;;19.00;11.23;;;;;;;;;;5066124;28;20029;-77
2022/12/06 11:33:30;;;;;;;22.93;12.27;;;;;;;;;;5047532;28;20026;-76
2022/12/06 11:35:56;;;;;;;24.03;13.00;;;;;;;;;;5050196;28;20029;-77
2022/12/06 11:38:22;;;;;;;20.13;12.30;;;;;;;;;;5047680;28;20022;-77
2022/12/06 11:40:50;;;;;;;19.77;11.93;;;;;;;;;;5049493;28;20122;-77
2022/12/06 11:43:28;;;;;;;20.77;11.73;;;;;;;;;;5060339;28;20037;-77
2022/12/06 11:45:57;;;;;;;17.80;11.37;;;;;;;;;;5047354;28;20441;-76
2022/12/06 11:48:25;;;;;;;20.13;10.87;;;;;;;;;;5048081;28;20028;-77
2022/12/06 11:50:51;;;;;;;18.07;11.80;;;;;;;;;;5063681;28;20036;-77
2022/12/06 11:53:31;;;;;;;15.83;9.73;;;;;;;;;;5052729;28;20037;-76
2022/12/06 11:56:00;;;;;;;18.80;11.03;;;;;;;;;;5047819;28;20060;-76
2022/12/06 11:58:30;;;;;;;17.63;11.47;;;;;;;;;;5061624;28;20505;-77
2022/12/06 12:00:58;;;;;;;20.83;10.43;;;;;;;;;;5050002;28;20835;-77
2022/12/06 12:03:32;;;;;;;16.70;11.13;;;;;;;;;;5047527;28;20029;-76
2022/12/06 12:06:17;;;;;;;24.03;11.57;;;;;;;;;;5059707;28;20049;-76
2022/12/06 12:09:11;;;;;;;18.20;11.07;;;;;;;;;;5050058;28;20029;-77
2022/12/06 12:11:41;;;;;;;16.77;9.13;;;;;;;;;;5041680;28;20162;-76
2022/12/06 12:14:15;;;;;;;16.50;10.27;;;;;;;;;;5048010;28;20033;-77
2022/12/06 12:16:49;;;;;;;15.20;9.23;;;;;;;;;;5048056;28;20072;-77
2022/12/06 12:19:34;;;;;;;19.13;10.77;;;;;;;;;;5060909;28;20036;-77
2022/12/06 12:22:13;;;;;;;15.93;9.27;;;;;;;;;;5064851;28;20965;-77
2022/12/06 12:24:47;;;;;;;18.63;9.83;;;;;;;;;;5049905;28;20040;-77
2022/12/06 12:27:34;;;;;;;15.17;9.17;;;;;;;;;;5062616;28;21016;-77
2022/12/06 12:30:18;;;;;;;17.90;10.23;;;;;;;;;;5050909;28;20021;-78
2022/12/06 12:32:44;;;;;;;16.70;10.23;;;;;;;;;;5044906;28;20020;-77
2022/12/06 12:35:20;;;;;;;14.73;8.77;;;;;;;;;;5046974;28;20052;-76
2022/12/06 12:37:54;;;;;;;11.77;7.33;;;;;;;;;;5058163;28;20080;-77
2022/12/06 12:40:22;;;;;;;14.87;8.33;;;;;;;;;;5061292;28;20885;-78
2022/12/06 12:42:48;;;;;;;11.60;7.70;;;;;;;;;;5046472;28;20548;-77
2022/12/06 12:45:19;;;;;;;14.63;7.63;;;;;;;;;;5044599;28;20474;-78
2022/12/06 12:47:58;;;;;;;16.47;8.23;;;;;;;;;;5062886;28;20507;-75
2022/12/06 12:50:27;;;;;;;11.37;7.27;;;;;;;;;;5057642;28;20368;-77
2022/12/06 12:52:53;;;;;;;13.10;7.63;;;;;;;;;;5061707;28;20460;-76
2022/12/06 12:55:19;;;;;;;10.53;7.43;;;;;;;;;;5061764;28;20091;-77
2022/12/06 12:57:49;;;;;;;9.73;6.60;;;;;;;;;;5047473;28;20029;-77
2022/12/06 13:00:16;;;;;;;11.77;7.50;;;;;;;;;;5046649;28;20047;-76
2022/12/06 13:02:42;;;;;;;10.20;6.87;;;;;;;;;;5045093;28;20056;-77
2022/12/06 13:05:19;;;;;;;11.63;6.90;;;;;;;;;;5046276;28;20040;-76
2022/12/06 13:07:47;;;;;;;12.90;6.77;;;;;;;;;;5064986;28;20029;-77
2022/12/06 13:10:19;;;;;;;13.60;8.33;;;;;;;;;;5060301;28;20040;-77
2022/12/06 13:12:45;;;;;;;10.98;7.47;;;;;;;;;;5046852;28;20445;-76
2022/12/06 13:15:20;;;;;;;14.10;8.30;;;;;;;;;;5051035;28;20453;-78
2022/12/06 13:17:52;;;;;;;15.30;8.13;;;;;;;;;;5072437;28;20021;-78
2022/12/06 13:20:18;;;;;;;14.53;7.70;;;;;;;;;;5045111;28;20082;-77
2022/12/06 13:22:46;;;;;;;13.30;7.80;;;;;;;;;;5066019;28;20349;-78
2022/12/06 13:25:13;;;;;;;12.67;7.90;;;;;;;;;;5054961;28;20021;-77
2022/12/06 13:27:42;;;;;;;13.13;6.87;;;;;;;;;;5054978;28;20024;-77
2022/12/06 13:30:13;;;;;;;11.27;6.43;;;;;;;;;;5058275;28;20349;-77
2022/12/06 13:32:42;;;;;;;14.80;7.03;;;;;;;;;;5047478;28;20021;-77
2022/12/06 13:35:08;;;;;;;12.17;6.87;;;;;;;;;;5065829;28;20025;-78
2022/12/06 13:37:34;;;;;;;13.67;8.33;;;;;;;;;;5063747;28;20361;-77
2022/12/06 13:40:01;;;;;;;20.00;8.33;;;;;;;;;;5061142;28;20033;-77
2022/12/06 13:42:36;;;;;;;11.90;7.20;;;;;;;;;;5059379;28;20039;-77
2022/12/06 13:45:04;;;;;;;11.80;6.67;;;;;;;;;;5055096;28;20020;-77
2022/12/06 13:47:30;;;;;;;13.90;7.47;;;;;;;;;;5050589;28;20043;-77
2022/12/06 13:50:14;;;;;;;13.47;7.20;;;;;;;;;;5063101;28;20051;-77
2022/12/06 13:52:43;;;;;;;11.87;6.43;;;;;;;;;;5054673;28;20055;-77
2022/12/06 13:55:25;;;;;;;11.23;6.63;;;;;;;;;;5064556;28;20029;-76
2022/12/06 13:57:56;;;;;;;9.93;6.93;;;;;;;;;;5070116;28;20021;-78
2022/12/06 14:00:25;;;;;;;13.40;7.10;;;;;;;;;;5057341;28;20112;-76
2022/12/06 14:02:51;;;;;;;10.77;6.60;;;;;;;;;;5063908;28;20033;-77
2022/12/06 14:05:36;;;;;;;12.80;6.30;;;;;;;;;;5059850;28;20020;-77
2022/12/06 14:08:02;;;;;;;13.73;6.23;;;;;;;;;;5054946;28;20036;-77
2022/12/06 14:10:28;;;;;;;10.80;6.50;;;;;;;;;;5068979;28;20066;-77
2022/12/06 14:13:03;;;;;;;11.60;7.50;;;;;;;;;;5054737;28;20028;-77
2022/12/06 14:15:29;;;;;;;10.10;5.93;;;;;;;;;;5068796;28;20028;-77
2022/12/06 14:17:55;;;;;;;13.27;7.20;;;;;;;;;;5059312;28;20021;-77
2022/12/06 14:20:26;;;;;;;11.77;6.47;;;;;;;;;;5050778;28;20021;-77
2022/12/06 14:22:55;;;;;;;11.13;7.10;;;;;;;;;;5053900;28;20119;-77
2022/12/06 14:25:24;;;;;;;10.20;6.73;;;;;;;;;;5056379;28;20025;-77
2022/12/06 14:27:51;;;;;;;11.73;6.50;;;;;;;;;;5064101;28;20032;-77
2022/12/06 14:30:17;;;;;;;16.10;7.47;;;;;;;;;;5053875;28;20028;-77
2022/12/06 14:32:43;;;;;;;19.10;6.93;;;;;;;;;;5053976;28;20071;-77
2022/12/06 14:35:19;;;;;;;11.87;6.97;;;;;;;;;;5047138;28;20354;-77
2022/12/06 14:37:53;;;;;;;15.20;7.80;;;;;;;;;;5060197;28;20025;-77
2022/12/06 14:42:59;;;;;;;9.53;6.97;;;;;;;;;;5064204;28;20392;-77
2022/12/06 14:43:18;;;;;;;13.83;8.07;;;;;;;;;;5052058;28;21440;-77
2022/12/06 14:45:44;;;;;;;17.53;9.00;;;;;;;;;;5053875;28;20025;-77
2022/12/06 14:48:11;;;;;;;15.40;8.37;;;;;;;;;;5055533;28;20044;-77
2022/12/06 14:50:49;;;;;;;12.37;7.57;;;;;;;;;;5054754;28;20032;-77
2022/12/06 14:53:36;;;;;;;20.10;8.10;;;;;;;;;;5066596;28;20025;-76
2022/12/06 14:56:20;;;;;;;13.07;7.90;;;;;;;;;;5050667;28;20033;-77